Time;durP1;ratioP1;P1;durP2;ratioP2;P2;SDS_P1;SDS_P2;PMS_P1;PMS_P2;Temp;Humidity;BMP_temperature;BMP_pressure;BME280_temperature;BME280_humidity;BME280_pressure;Samples;Min_cycle;Max_cycle;Signal;HPM_P1;HPM_P2
2023/07/09 00:02:18;;;;;;;1999.90;999.90;;;;;;;34.54;36.19;101745.41;5069765;28;20033;-71
2023/07/09 00:04:44;;;;;;;1999.90;999.90;;;;;;;34.49;36.14;101745.88;5067564;28;20031;-71
2023/07/09 00:07:25;;;;;;;1999.90;999.90;;;;;;;34.49;36.09;101745.88;5068033;28;20027;-71
2023/07/09 00:09:50;;;;;;;1999.90;999.90;;;;;;;34.48;36.42;101747.72;5068927;28;20056;-71
2023/07/09 00:12:17;;;;;;;1999.90;999.90;;;;;;;34.37;36.01;101747.09;5067612;28;20048;-71
2023/07/09 00:14:44;;;;;;;1999.90;999.90;;;;;;;34.36;36.42;101753.50;5068459;28;20020;-71
2023/07/09 00:17:21;;;;;;;1999.90;999.90;;;;;;;34.45;36.12;101763.47;5067099;28;20060;-71
2023/07/09 00:19:46;;;;;;;1999.90;999.90;;;;;;;34.65;36.01;101765.06;5069445;28;20039;-71
2023/07/09 00:22:17;;;;;;;1999.90;999.90;;;;;;;34.66;35.70;101772.22;5067698;28;20024;-71
2023/07/09 00:24:50;;;;;;;1999.90;999.90;;;;;;;34.52;36.03;101759.13;5067728;28;20093;-71
2023/07/09 00:27:18;;;;;;;1999.90;999.90;;;;;;;34.52;36.07;101771.88;5068140;28;20123;-71
2023/07/09 00:29:44;;;;;;;1999.90;999.90;;;;;;;34.62;35.19;101770.81;5069339;28;20557;-71
2023/07/09 00:32:15;;;;;;;1999.90;999.90;;;;;;;34.94;34.72;101769.50;5067354;28;20053;-71
2023/07/09 00:34:55;;;;;;;1999.90;999.90;;;;;;;34.57;35.34;101759.53;5068132;28;20035;-71
2023/07/09 00:37:25;;;;;;;1999.90;999.90;;;;;;;34.20;36.14;101765.81;5068116;28;20028;-71
2023/07/09 00:39:51;;;;;;;1999.90;999.90;;;;;;;34.19;35.79;101758.69;5066887;28;20142;-71
2023/07/09 00:42:23;;;;;;;1999.90;999.90;;;;;;;34.28;35.74;101762.34;5067924;28;20116;-71
2023/07/09 00:44:54;;;;;;;1999.90;999.90;;;;;;;34.24;35.63;101761.81;5067411;28;20029;-70
2023/07/09 00:47:23;;;;;;;1999.90;999.90;;;;;;;34.12;36.02;101765.72;5067447;28;20017;-71
2023/07/09 00:49:52;;;;;;;1999.90;999.90;;;;;;;34.21;35.91;101766.66;5069411;28;20033;-71
2023/07/09 00:52:33;;;;;;;1999.90;999.90;;;;;;;34.49;35.79;101764.88;5071215;28;20388;-71
2023/07/09 00:55:03;;;;;;;1999.90;999.90;;;;;;;33.90;36.94;101765.06;5071045;28;20060;-71
2023/07/09 00:57:29;;;;;;;1999.90;999.90;;;;;;;34.08;36.58;101767.00;5071616;28;20028;-71
2023/07/09 01:00:09;;;;;;;1999.90;999.90;;;;;;;33.77;37.29;101764.50;5070353;28;20028;-71
2023/07/09 01:02:36;;;;;;;1999.90;999.90;;;;;;;33.71;37.96;101765.06;5072769;28;20032;-70
2023/07/09 01:05:03;;;;;;;1999.90;999.90;;;;;;;33.79;36.92;101763.38;5071000;28;20025;-70
2023/07/09 01:07:29;;;;;;;1999.90;999.90;;;;;;;33.73;36.95;101763.06;5071042;28;20029;-70
2023/07/09 01:09:55;;;;;;;1999.90;999.90;;;;;;;33.80;37.15;101761.53;5070926;28;20492;-70
2023/07/09 01:12:22;;;;;;;1999.90;999.90;;;;;;;33.67;37.49;101759.06;5071362;28;20174;-70
2023/07/09 01:14:54;;;;;;;1999.90;999.90;;;;;;;33.80;37.04;101756.94;5070350;28;20024;-70
2023/07/09 01:17:20;;;;;;;1999.90;999.90;;;;;;;33.92;36.89;101763.06;5071110;28;20024;-70
2023/07/09 01:19:50;;;;;;;1999.90;999.90;;;;;;;33.74;37.26;101770.19;5071374;28;20104;-71
2023/07/09 01:22:18;;;;;;;1999.90;999.90;;;;;;;33.75;37.62;101771.91;5072081;28;20408;-70
2023/07/09 01:24:55;;;;;;;1999.90;999.90;;;;;;;33.78;37.77;101772.50;5072474;28;20024;-70
2023/07/09 01:27:43;;;;;;;1999.90;999.90;;;;;;;33.77;37.37;101770.81;5071154;28;20032;-70
2023/07/09 01:30:16;;;;;;;1999.90;999.90;;;;;;;33.76;37.60;101777.19;5070340;28;20067;-70
2023/07/09 01:32:45;;;;;;;1999.90;999.90;;;;;;;33.59;37.87;101784.22;5071053;28;20099;-70
2023/07/09 01:35:14;;;;;;;1999.90;999.90;;;;;;;33.60;37.53;101785.91;5071382;28;20028;-70
2023/07/09 01:37:41;;;;;;;1999.90;999.90;;;;;;;33.60;37.78;101775.06;5070910;28;20027;-71
2023/07/09 01:40:09;;;;;;;1999.90;999.90;;;;;;;34.19;36.35;101780.38;5070306;28;20079;-70
2023/07/09 01:42:37;;;;;;;1999.90;999.90;;;;;;;33.99;36.59;101780.44;5070206;28;20093;-70
2023/07/09 01:45:04;;;;;;;1999.90;999.90;;;;;;;33.95;36.76;101779.03;5070403;28;20480;-70
2023/07/09 01:47:30;;;;;;;1999.90;999.90;;;;;;;33.60;37.94;101783.19;5070815;28;20038;-71
2023/07/09 01:49:59;;;;;;;1999.90;999.90;;;;;;;34.06;36.82;101785.28;5069582;28;20032;-70
2023/07/09 01:52:27;;;;;;;1999.90;999.90;;;;;;;34.16;36.47;101780.69;5070636;28;20024;-70
2023/07/09 01:54:53;;;;;;;1999.90;999.90;;;;;;;33.88;37.06;101777.91;5069825;28;20052;-70
2023/07/09 01:57:33;;;;;;;1999.90;999.90;;;;;;;33.76;37.43;101776.34;5069997;28;20032;-70
2023/07/09 02:00:00;;;;;;;1999.90;999.90;;;;;;;33.05;38.51;101785.59;5070054;28;20020;-70
2023/07/09 02:02:26;;;;;;;1999.90;999.90;;;;;;;33.28;38.68;101781.63;5070422;28;20036;-71
2023/07/09 02:04:54;;;;;;;1999.90;999.90;;;;;;;33.47;37.78;101785.34;5069647;28;20024;-69
2023/07/09 02:07:21;;;;;;;1999.90;999.90;;;;;;;33.41;37.97;101781.34;5070072;28;20032;-70
2023/07/09 02:09:48;;;;;;;1999.90;999.90;;;;;;;33.21;38.33;101780.47;5069620;28;20559;-70
2023/07/09 02:12:15;;;;;;;1999.90;999.90;;;;;;;33.31;38.62;101786.75;5070261;28;20047;-70
2023/07/09 02:14:42;;;;;;;1999.90;999.90;;;;;;;32.82;39.79;101780.41;5070209;28;20032;-70
2023/07/09 02:17:09;;;;;;;1999.90;999.90;;;;;;;33.27;38.52;101779.91;5068996;28;20028;-70
2023/07/09 02:19:35;;;;;;;1999.90;999.90;;;;;;;33.07;39.01;101776.31;5071058;28;20095;-70
2023/07/09 02:22:01;;;;;;;1999.90;999.90;;;;;;;33.10;39.37;101783.31;5069523;28;20123;-70
2023/07/09 02:24:27;;;;;;;1999.90;999.90;;;;;;;33.34;39.08;101790.19;5069090;28;20119;-70
2023/07/09 02:26:57;;;;;;;1999.90;999.90;;;;;;;33.32;39.00;101776.81;5069762;28;20484;-70
2023/07/09 02:29:24;;;;;;;1999.90;999.90;;;;;;;33.56;38.21;101784.47;5069738;28;20033;-70
2023/07/09 02:31:51;;;;;;;1999.90;999.90;;;;;;;33.12;39.37;101778.59;5069131;28;20036;-69
2023/07/09 02:34:18;;;;;;;1999.90;999.90;;;;;;;33.70;38.25;101779.63;5069553;28;20024;-70
2023/07/09 02:36:44;;;;;;;1999.90;999.90;;;;;;;33.31;38.84;101775.94;5069700;28;20021;-70
2023/07/09 02:39:12;;;;;;;1999.90;999.90;;;;;;;33.27;39.07;101779.91;5068526;28;20066;-70
2023/07/09 02:41:38;;;;;;;1999.90;999.90;;;;;;;33.47;38.22;101779.94;5070678;28;20542;-70
2023/07/09 02:44:04;;;;;;;1999.90;999.90;;;;;;;33.26;39.11;101780.94;5069240;28;20031;-70
2023/07/09 02:46:30;;;;;;;1999.90;999.90;;;;;;;33.26;39.18;101777.34;5068988;28;20384;-70
2023/07/09 02:48:55;;;;;;;1999.90;999.90;;;;;;;33.24;39.00;101772.09;5069159;28;20494;-70
2023/07/09 02:51:21;;;;;;;1999.90;999.90;;;;;;;33.24;39.38;101774.78;5069521;28;20388;-71
2023/07/09 02:53:50;;;;;;;1999.90;999.90;;;;;;;33.00;39.69;101785.13;5069961;28;20141;-70
2023/07/09 02:56:16;;;;;;;1999.90;999.90;;;;;;;33.06;39.90;101777.31;5069273;28;20052;-70
2023/07/09 02:58:41;;;;;;;1999.90;999.90;;;;;;;33.24;39.24;101780.22;5069303;28;20542;-70
2023/07/09 03:01:06;;;;;;;1999.90;999.90;;;;;;;33.78;38.28;101774.34;5068119;28;20031;-70
2023/07/09 03:03:32;;;;;;;1999.90;999.90;;;;;;;33.08;39.58;101761.75;5069224;28;20124;-70
2023/07/09 03:05:57;;;;;;;1999.90;999.90;;;;;;;33.28;39.95;101776.22;5069429;28;20056;-70
2023/07/09 03:08:23;;;;;;;1999.90;999.90;;;;;;;32.85;40.19;101777.44;5069161;28;20107;-70
2023/07/09 03:10:48;;;;;;;1999.90;999.90;;;;;;;33.00;40.01;101777.00;5068567;28;20074;-70
2023/07/09 03:13:14;;;;;;;1999.90;999.90;;;;;;;32.38;41.38;101779.78;5067682;28;20030;-70
2023/07/09 03:15:39;;;;;;;1999.90;999.90;;;;;;;32.67;40.91;101781.75;5068868;28;20422;-71
2023/07/09 03:18:05;;;;;;;1999.90;999.90;;;;;;;32.82;40.10;101780.41;5069890;28;20520;-70
2023/07/09 03:20:30;;;;;;;1999.90;999.90;;;;;;;32.54;40.49;101782.84;5069049;28;20052;-70
2023/07/09 03:22:56;;;;;;;1999.90;999.90;;;;;;;32.44;41.14;101790.09;5068805;28;20115;-70
2023/07/09 03:25:21;;;;;;;1999.90;999.90;;;;;;;32.62;40.78;101788.44;5069180;28;20032;-70
2023/07/09 03:27:49;;;;;;;1999.90;999.90;;;;;;;32.41;40.88;101790.34;5069532;28;20434;-70
2023/07/09 03:30:15;;;;;;;1999.90;999.90;;;;;;;32.77;39.97;101793.50;5068975;28;20039;-71
2023/07/09 03:32:42;;;;;;;1999.90;999.90;;;;;;;32.47;40.18;101779.00;5068626;28;20032;-70
2023/07/09 03:35:08;;;;;;;1999.90;999.90;;;;;;;32.23;40.80;101785.59;5069344;28;20101;-71
2023/07/09 03:37:34;;;;;;;1999.90;999.90;;;;;;;32.37;40.86;101799.72;5068724;28;20407;-71
2023/07/09 03:39:59;;;;;;;1761.40;869.15;;;;;;;31.74;42.22;101792.50;5068794;28;20055;-70
2023/07/09 03:42:28;;;;;;;1999.90;999.90;;;;;;;32.20;40.90;101802.06;5067707;28;20068;-71
2023/07/09 03:44:53;;;;;;;1999.90;999.90;;;;;;;32.26;40.47;101800.66;5068438;28;20032;-70
2023/07/09 03:47:19;;;;;;;1999.90;999.90;;;;;;;32.12;41.20;101809.94;5068688;28;20081;-71
2023/07/09 03:49:44;;;;;;;1999.90;999.90;;;;;;;32.35;40.74;101799.00;5069374;28;20450;-70
2023/07/09 03:52:09;;;;;;;1999.90;999.90;;;;;;;32.19;41.01;101799.50;5068384;28;20071;-71
2023/07/09 03:54:35;;;;;;;1999.90;999.90;;;;;;;32.35;41.16;101799.00;5068799;28;20540;-71
2023/07/09 03:57:00;;;;;;;1999.90;999.90;;;;;;;32.31;41.03;101803.81;5067070;28;20036;-70
2023/07/09 03:59:29;;;;;;;1999.90;999.90;;;;;;;32.33;41.08;101798.28;5068733;28;20073;-70
2023/07/09 04:01:54;;;;;;;1999.90;999.90;;;;;;;32.52;40.24;101800.22;5067856;28;20044;-71
2023/07/09 04:04:20;;;;;;;1999.90;999.90;;;;;;;32.36;40.79;101796.16;5067691;28;20243;-71
2023/07/09 04:06:46;;;;;;;1999.90;999.90;;;;;;;32.63;40.40;101798.28;5068419;28;20109;-71
2023/07/09 04:09:12;;;;;;;1999.90;999.90;;;;;;;32.63;40.32;101791.97;5068015;28;20023;-70
2023/07/09 04:11:37;;;;;;;1999.90;999.90;;;;;;;32.48;40.17;101791.53;5067603;28;20029;-70
2023/07/09 04:14:03;;;;;;;1999.90;999.90;;;;;;;32.25;40.67;101794.41;5069426;28;20035;-71
2023/07/09 04:16:28;;;;;;;1999.90;999.90;;;;;;;32.50;40.34;101792.22;5068818;28;20039;-70
2023/07/09 04:18:54;;;;;;;472.85;443.35;;;;;;;32.50;40.55;101786.81;5069141;28;20029;-70
2023/07/09 04:21:19;;;;;;;4.28;2.50;;;;;;;32.46;41.35;101796.19;5069853;28;20349;-70
2023/07/09 04:23:45;;;;;;;65.38;61.70;;;;;;;32.90;39.74;101794.09;5070174;28;20059;-71
2023/07/09 04:26:13;;;;;;;859.95;789.10;;;;;;;32.52;40.48;101784.84;5073135;28;20508;-70
2023/07/09 04:28:38;;;;;;;4.78;2.67;;;;;;;32.68;40.31;101794.28;5072173;28;20025;-70
2023/07/09 04:31:04;;;;;;;2.80;2.17;;;;;;;32.86;39.78;101792.66;5072428;28;20017;-71
2023/07/09 04:33:29;;;;;;;4.25;2.10;;;;;;;32.78;40.59;101796.06;5073491;28;20484;-70
2023/07/09 04:35:55;;;;;;;3.65;2.17;;;;;;;32.69;40.47;101796.84;5072969;28;20035;-70
2023/07/09 04:38:21;;;;;;;4.57;2.80;;;;;;;33.17;39.17;101787.16;5071390;28;20105;-70
2023/07/09 04:40:46;;;;;;;4.03;2.05;;;;;;;32.78;40.65;101792.50;5071974;28;20484;-71
2023/07/09 04:43:12;;;;;;;6.15;3.40;;;;;;;32.69;41.21;101790.59;5071825;28;20028;-70
2023/07/09 04:45:37;;;;;;;4.93;3.35;;;;;;;32.78;40.79;101789.78;5071695;28;20031;-71
2023/07/09 04:48:03;;;;;;;5.88;3.22;;;;;;;33.08;40.14;101798.81;5071360;28;20056;-71
2023/07/09 04:50:28;;;;;;;4.20;3.22;;;;;;;32.93;40.24;101799.25;5071867;28;20051;-70
2023/07/09 04:52:54;;;;;;;6.60;6.03;;;;;;;32.86;41.43;101803.47;5071572;28;20396;-71
2023/07/09 04:55:19;;;;;;;13.15;12.35;;;;;;;33.44;39.78;101796.47;5072690;28;20416;-71
2023/07/09 04:57:45;;;;;;;42.72;40.13;;;;;;;33.54;40.05;101801.88;5071615;28;20163;-71
2023/07/09 05:00:11;;;;;;;171.25;162.10;;;;;;;33.96;38.76;101799.72;5070287;28;20510;-71
2023/07/09 05:02:37;;;;;;;338.35;319.13;;;;;;;33.97;37.86;101798.72;5072951;28;20101;-70
2023/07/09 05:05:02;;;;;;;461.90;433.95;;;;;;;34.40;37.65;101803.75;5071023;28;20476;-71
2023/07/09 05:07:28;;;;;;;627.33;585.45;;;;;;;34.94;36.63;101806.63;5070695;28;20058;-71
2023/07/09 05:09:54;;;;;;;879.40;812.53;;;;;;;34.13;37.69;101811.66;5072330;28;20028;-70
2023/07/09 05:12:20;;;;;;;962.72;883.50;;;;;;;34.51;37.38;101800.00;5071732;28;20025;-71
2023/07/09 05:14:46;;;;;;;1023.72;934.22;;;;;;;34.18;37.35;101805.78;5070678;28;20107;-70
2023/07/09 05:17:11;;;;;;;1077.85;978.45;;;;;;;34.23;36.94;101808.91;5070773;28;20024;-71
2023/07/09 05:19:37;;;;;;;1961.43;999.90;;;;;;;33.88;37.90;101815.88;5070866;28;20541;-70
2023/07/09 05:22:02;;;;;;;1999.90;999.90;;;;;;;33.02;40.35;101821.06;5070767;28;20384;-71
2023/07/09 05:24:28;;;;;;;1999.90;999.90;;;;;;;33.77;38.40;101810.59;5071364;28;20021;-71
2023/07/09 05:26:54;;;;;;;1999.90;999.90;;;;;;;34.20;38.47;101822.78;5071553;28;20070;-71
2023/07/09 05:29:19;;;;;;;1999.90;999.90;;;;;;;34.43;38.20;101814.28;5071240;28;20056;-69
2023/07/09 05:31:44;;;;;;;1999.90;999.90;;;;;;;33.54;39.67;101808.16;5070903;28;20801;-71
2023/07/09 05:34:10;;;;;;;1999.90;999.90;;;;;;;33.78;39.28;101804.19;5069980;28;20036;-71
2023/07/09 05:36:35;;;;;;;1999.90;999.90;;;;;;;33.69;39.68;101810.41;5070954;28;20024;-71
2023/07/09 05:39:01;;;;;;;1999.90;999.90;;;;;;;33.84;39.21;101809.03;5070655;28;20124;-71
2023/07/09 05:41:26;;;;;;;1999.90;999.90;;;;;;;33.63;39.86;101804.59;5070197;28;20025;-71
2023/07/09 05:43:52;;;;;;;1999.90;999.90;;;;;;;33.84;39.20;101808.16;5071886;28;20109;-71
2023/07/09 05:46:18;;;;;;;1999.90;999.90;;;;;;;33.53;39.96;101801.03;5072066;28;20053;-70
2023/07/09 05:48:44;;;;;;;1999.90;999.90;;;;;;;33.44;39.34;101813.59;5069932;28;20135;-70
2023/07/09 05:51:09;;;;;;;1999.90;999.90;;;;;;;34.41;38.25;101816.31;5070332;28;20564;-71
2023/07/09 05:53:35;;;;;;;1999.90;999.90;;;;;;;33.64;39.48;101819.84;5071558;28;20024;-71
2023/07/09 05:56:01;;;;;;;1999.90;999.90;;;;;;;34.02;38.84;101811.84;5069214;28;20044;-71
2023/07/09 05:58:26;;;;;;;1999.90;999.90;;;;;;;33.97;39.06;101814.97;5070623;28;20031;-70
2023/07/09 06:00:56;;;;;;;1999.90;999.90;;;;;;;31.92;43.67;101820.63;5071319;28;20445;-70
2023/07/09 06:03:22;;;;;;;1999.90;999.90;;;;;;;32.72;42.26;101823.66;5070010;28;20060;-70
2023/07/09 06:05:51;;;;;;;1999.90;999.90;;;;;;;32.78;42.05;101822.25;5069806;28;20028;-69
2023/07/09 06:08:18;;;;;;;1999.90;999.90;;;;;;;32.26;42.91;101823.16;5070439;28;20107;-70
2023/07/09 06:10:51;;;;;;;1999.90;999.90;;;;;;;32.46;42.54;101828.66;5069640;28;20544;-70
2023/07/09 06:13:18;;;;;;;1999.90;999.90;;;;;;;33.58;40.59;101825.84;5070259;28;20458;-70
2023/07/09 06:15:43;;;;;;;1999.90;999.90;;;;;;;32.57;41.50;101825.00;5070398;28;20547;-70
2023/07/09 06:18:09;;;;;;;1999.90;999.90;;;;;;;32.61;41.31;101827.28;5068909;28;20089;-70
2023/07/09 06:20:34;;;;;;;1999.90;999.90;;;;;;;34.20;39.10;101836.34;5069784;28;20024;-70
2023/07/09 06:23:00;;;;;;;1999.90;999.90;;;;;;;34.94;37.26;101842.81;5070163;28;20377;-70
2023/07/09 06:25:25;;;;;;;1999.90;999.90;;;;;;;36.19;35.75;101840.25;5070147;28;20021;-70
2023/07/09 06:27:51;;;;;;;1999.90;999.90;;;;;;;36.08;34.73;101844.09;5069138;28;20020;-70
2023/07/09 06:30:19;;;;;;;1999.90;999.90;;;;;;;36.84;33.24;101838.91;5069100;28;20016;-70
2023/07/09 06:32:45;;;;;;;1999.90;999.90;;;;;;;37.35;32.52;101847.06;5070999;28;20047;-70
2023/07/09 06:35:10;;;;;;;1999.90;999.90;;;;;;;38.00;32.12;101850.81;5069005;28;20476;-70
2023/07/09 06:37:35;;;;;;;1999.90;999.90;;;;;;;38.14;31.67;101846.53;5068946;28;20041;-70
2023/07/09 06:40:02;;;;;;;1999.90;999.90;;;;;;;38.42;30.60;101847.00;5068980;28;20019;-71
2023/07/09 06:42:27;;;;;;;1999.90;999.90;;;;;;;39.11;29.39;101856.47;5069349;28;20510;-71
2023/07/09 06:44:53;;;;;;;1999.90;999.90;;;;;;;38.18;31.37;101858.81;5068001;28;20017;-70
2023/07/09 06:47:18;;;;;;;1999.90;999.90;;;;;;;38.24;31.01;101863.63;5068260;28;20031;-71
2023/07/09 06:49:44;;;;;;;1999.90;999.90;;;;;;;38.98;29.95;101867.94;5069350;28;20029;-71
2023/07/09 06:52:09;;;;;;;1999.90;999.90;;;;;;;37.27;30.88;101866.94;5067795;28;20039;-70
2023/07/09 06:54:34;;;;;;;1999.90;999.90;;;;;;;35.89;31.52;101861.44;5068812;28;20029;-70
2023/07/09 06:57:00;;;;;;;1999.90;999.90;;;;;;;35.49;32.14;101870.94;5068810;28;20107;-70
2023/07/09 06:59:25;;;;;;;1999.90;999.90;;;;;;;36.45;31.57;101877.47;5068393;28;20052;-70
2023/07/09 07:01:51;;;;;;;1999.90;999.90;;;;;;;35.75;32.05;101883.72;5068519;28;20039;-71
2023/07/09 07:04:16;;;;;;;1999.90;999.90;;;;;;;36.17;31.60;101883.06;5070383;28;20020;-71
2023/07/09 07:06:41;;;;;;;1999.90;999.90;;;;;;;37.72;29.92;101885.78;5069339;28;20028;-71
2023/07/09 07:09:07;;;;;;;1999.90;999.90;;;;;;;37.56;29.89;101887.44;5068845;28;20616;-71
2023/07/09 07:11:32;;;;;;;1999.90;999.90;;;;;;;38.19;29.13;101883.19;5069105;28;20029;-71
2023/07/09 07:13:58;;;;;;;1999.90;999.90;;;;;;;37.30;29.31;101877.56;5067806;28;20066;-71
2023/07/09 07:16:23;;;;;;;1999.90;999.90;;;;;;;37.14;29.83;101877.47;5085908;28;20078;-71
2023/07/09 07:18:50;;;;;;;1999.90;999.90;;;;;;;38.37;28.48;101878.59;5069476;28;20032;-71
2023/07/09 07:21:15;;;;;;;1999.90;999.90;;;;;;;37.19;30.10;101880.53;5068855;28;20082;-71
2023/07/09 07:23:41;;;;;;;1999.90;999.90;;;;;;;35.74;32.20;101879.31;5085474;28;20423;-71
2023/07/09 07:26:06;;;;;;;1999.90;999.90;;;;;;;36.56;31.60;101876.34;5068379;28;20115;-72
2023/07/09 07:28:34;;;;;;;1999.90;999.90;;;;;;;36.41;30.75;101873.38;5068046;28;20111;-72
2023/07/09 07:31:02;;;;;;;1999.90;999.90;;;;;;;36.82;29.15;101862.72;5070031;28;20035;-72
2023/07/09 07:33:28;;;;;;;1999.90;999.90;;;;;;;38.32;27.34;101866.31;5088064;28;20077;-70
2023/07/09 07:35:53;;;;;;;1999.90;999.90;;;;;;;36.62;29.35;101857.50;5084647;28;20036;-72
2023/07/09 07:38:19;;;;;;;1999.90;999.90;;;;;;;36.40;29.24;101852.66;5068713;28;20059;-72
2023/07/09 07:40:45;;;;;;;1999.90;999.90;;;;;;;35.71;31.07;101852.41;5069137;28;20024;-71
2023/07/09 07:43:10;;;;;;;1999.90;999.90;;;;;;;37.10;29.63;101843.41;5068135;28;20365;-72
2023/07/09 07:45:36;;;;;;;1999.90;999.90;;;;;;;35.55;31.96;101843.13;5068267;28;20127;-70
2023/07/09 07:48:01;;;;;;;1999.90;999.90;;;;;;;37.18;29.78;101840.72;5067425;28;20408;-70
2023/07/09 07:50:26;;;;;;;1999.90;999.90;;;;;;;36.08;30.66;101849.53;5068716;28;20028;-72
2023/07/09 07:52:52;;;;;;;1999.90;999.90;;;;;;;36.64;30.12;101849.16;5084683;28;20035;-72
2023/07/09 07:55:18;;;;;;;1999.90;999.90;;;;;;;37.61;28.86;101857.81;5067406;28;20045;-72
2023/07/09 07:57:43;;;;;;;1999.90;999.90;;;;;;;37.97;28.65;101846.56;5068034;28;20441;-70
2023/07/09 08:00:10;;;;;;;1999.90;999.90;;;;;;;37.57;29.30;101859.16;5068072;28;20029;-69
2023/07/09 08:02:35;;;;;;;1999.90;999.90;;;;;;;37.96;28.48;101857.66;5067720;28;20028;-69
2023/07/09 08:05:00;;;;;;;1999.90;999.90;;;;;;;37.65;28.26;101852.88;5067614;28;20481;-69
2023/07/09 08:07:26;;;;;;;1999.90;999.90;;;;;;;38.28;27.53;101859.50;5085194;28;20070;-69
2023/07/09 08:09:51;;;;;;;1999.90;999.90;;;;;;;37.60;29.17;101850.66;5084095;28;20048;-69
2023/07/09 08:12:17;;;;;;;1999.90;999.90;;;;;;;36.11;29.91;101849.19;5068277;28;20127;-69
2023/07/09 08:14:45;;;;;;;1999.90;999.90;;;;;;;36.54;30.00;101846.56;5069628;28;20082;-69
2023/07/09 08:17:10;;;;;;;1999.90;999.90;;;;;;;36.98;29.25;101840.13;5066885;28;20028;-69
2023/07/09 08:19:53;;;;;;;1999.90;999.90;;;;;;;36.71;29.96;101838.47;5068149;28;20032;-69
2023/07/09 08:22:20;;;;;;;1999.90;999.90;;;;;;;35.40;31.53;101836.53;5085117;28;20028;-70
2023/07/09 08:24:46;;;;;;;1999.90;999.90;;;;;;;36.63;30.62;101832.00;5067415;28;20032;-72
2023/07/09 08:27:12;;;;;;;1999.90;999.90;;;;;;;36.64;29.66;101832.84;5067734;28;20439;-71
2023/07/09 08:29:37;;;;;;;1999.90;999.90;;;;;;;35.18;31.79;101852.22;5068873;28;20028;-72
2023/07/09 08:32:03;;;;;;;1999.90;999.90;;;;;;;35.66;30.97;101845.59;5068799;28;20464;-70
2023/07/09 08:34:29;;;;;;;1999.90;999.90;;;;;;;35.36;31.77;101848.72;5068141;28;20044;-71
2023/07/09 08:36:54;;;;;;;1999.90;999.90;;;;;;;35.75;31.45;101832.94;5066857;28;20024;-71
2023/07/09 08:39:20;;;;;;;1999.90;999.90;;;;;;;35.89;31.24;101836.97;5069700;28;20044;-71
2023/07/09 08:41:53;;;;;;;1999.90;999.90;;;;;;;34.71;32.37;101833.34;5067877;28;20028;-71
2023/07/09 08:44:44;;;;;;;1999.90;999.90;;;;;;;35.04;32.02;101839.19;5067054;28;20040;-71
2023/07/09 08:47:37;;;;;;;1999.90;999.90;;;;;;;37.14;29.49;101832.00;5067437;28;20040;-70
2023/07/09 08:50:12;;;;;;;1999.90;999.90;;;;;;;37.09;29.07;101841.69;5069128;28;20028;-71
2023/07/09 08:52:41;;;;;;;1999.90;999.90;;;;;;;36.74;30.11;101838.16;5067352;28;20083;-71
2023/07/09 08:55:16;;;;;;;1999.90;999.90;;;;;;;36.99;30.20;101848.16;5067361;28;20052;-71
2023/07/09 08:58:01;;;;;;;1999.90;999.90;;;;;;;37.28;29.68;101841.44;5066983;28;20469;-71
2023/07/09 09:00:29;;;;;;;1999.90;999.90;;;;;;;36.76;29.90;101836.13;5069313;28;20021;-71
2023/07/09 09:03:02;;;;;;;1999.90;999.90;;;;;;;37.18;30.12;101846.16;5067216;28;20028;-71
2023/07/09 09:05:31;;;;;;;1999.90;999.90;;;;;;;37.77;28.34;101859.72;5066939;28;20086;-71
2023/07/09 09:08:33;;;;;;;1999.90;999.90;;;;;;;37.72;28.66;101872.16;5067394;28;20032;-70
2023/07/09 09:11:41;;;;;;;1999.90;999.90;;;;;;;37.38;29.40;101864.94;5064133;28;20028;-73
2023/07/09 09:14:27;;;;;;;1999.90;999.90;;;;;;;39.58;27.72;101858.19;5071993;28;20033;-70
2023/07/09 09:16:54;;;;;;;1999.90;999.90;;;;;;;40.07;25.78;101858.84;5070647;28;20472;-71
2023/07/09 09:19:28;;;;;;;1999.90;999.90;;;;;;;41.39;25.54;101857.22;5070462;28;20050;-71
2023/07/09 09:22:03;;;;;;;1999.90;999.90;;;;;;;40.65;25.48;101862.63;5070343;28;20025;-72
2023/07/09 09:24:55;;;;;;;1999.90;999.90;;;;;;;40.19;25.87;101873.78;5070924;28;20032;-71
2023/07/09 09:27:20;;;;;;;1999.90;999.90;;;;;;;40.47;25.77;101879.41;5070161;28;20035;-71
2023/07/09 09:29:45;;;;;;;1999.90;999.90;;;;;;;38.76;27.02;101878.66;5072213;28;20088;-71
2023/07/09 09:32:23;;;;;;;1999.90;999.90;;;;;;;41.04;24.95;101877.03;5070164;28;20104;-72
2023/07/09 09:34:48;;;;;;;1999.90;999.90;;;;;;;40.40;25.41;101869.44;5069804;28;20028;-71
2023/07/09 09:37:31;;;;;;;1999.90;999.90;;;;;;;40.77;24.82;101853.94;5071073;28;20484;-71
2023/07/09 09:39:59;;;;;;;1999.90;999.90;;;;;;;41.97;24.23;101857.91;5069609;28;20039;-72
2023/07/09 09:42:25;;;;;;;1999.90;999.90;;;;;;;42.07;23.25;101852.06;5070575;28;20124;-71
2023/07/09 09:44:54;;;;;;;1999.90;999.90;;;;;;;39.91;25.52;101849.72;5071183;28;20035;-71
2023/07/09 09:47:20;;;;;;;1999.90;999.90;;;;;;;39.10;26.57;101847.38;5086832;28;20031;-71
2023/07/09 09:49:46;;;;;;;1999.90;999.90;;;;;;;40.74;25.35;101843.34;5070730;28;20173;-72
2023/07/09 09:52:18;;;;;;;1999.90;999.90;;;;;;;40.28;24.98;101856.19;5071432;28;20127;-71
2023/07/09 09:55:04;;;;;;;;;;;;;;;39.57;25.84;101859.25;5069921;28;20059;-72
2023/07/09 09:57:30;;;;;;;1999.90;999.90;;;;;;;39.19;26.36;101856.44;5071926;28;19912;-72
2023/07/09 09:59:55;;;;;;;1999.90;999.90;;;;;;;38.74;27.02;101849.81;5069991;28;20392;-71
2023/07/09 10:02:24;;;;;;;1999.90;999.90;;;;;;;39.16;27.08;101834.94;5069641;28;20028;-72
2023/07/09 10:04:50;;;;;;;1999.90;999.90;;;;;;;40.27;25.44;101838.09;5070862;28;20119;-71
2023/07/09 10:07:39;;;;;;;1999.90;999.90;;;;;;;38.74;27.17;101841.63;5070226;28;20032;-72
2023/07/09 10:10:15;;;;;;;1999.90;999.90;;;;;;;40.03;26.40;101856.44;5068817;28;20025;-71
2023/07/09 10:12:51;;;;;;;1999.90;999.90;;;;;;;40.21;26.03;101863.47;5070231;28;20020;-71
2023/07/09 10:15:42;;;;;;;1999.90;999.90;;;;;;;38.45;27.55;101859.47;5069335;28;20043;-71
2023/07/09 10:18:29;;;;;;;1999.90;999.90;;;;;;;38.61;27.94;101864.00;5069803;28;20031;-71
2023/07/09 10:21:33;;;;;;;1999.90;999.90;;;;;;;39.47;26.98;101853.16;5070429;28;20037;-71
2023/07/09 10:24:41;;;;;;;1999.90;999.90;;;;;;;40.15;26.14;101864.22;5068700;28;20488;-71
2023/07/09 10:27:19;;;;;;;1999.90;999.90;;;;;;;40.48;25.41;101850.16;5069340;28;20079;-71
2023/07/09 10:30:21;;;;;;;1999.90;999.90;;;;;;;42.86;23.63;101858.22;5068977;28;20078;-72
2023/07/09 10:32:58;;;;;;;1999.90;999.90;;;;;;;39.89;26.24;101846.31;5069656;28;20569;-71
2023/07/09 10:36:09;;;;;;;1999.90;999.90;;;;;;;39.81;26.08;101851.88;5071072;28;20055;-71
2023/07/09 10:38:49;;;;;;;1999.90;999.90;;;;;;;40.12;25.57;101850.91;5065433;28;20041;-71
2023/07/09 10:41:17;;;;;;;1999.90;999.90;;;;;;;40.42;25.68;101842.69;5069236;28;20035;-71
2023/07/09 10:43:48;;;;;;;1999.90;999.90;;;;;;;40.61;26.48;101853.09;5068895;28;20051;-71
2023/07/09 10:46:17;;;;;;;1999.90;999.90;;;;;;;40.87;25.14;101865.44;5069327;28;20036;-71
2023/07/09 10:48:51;;;;;;;1999.90;999.90;;;;;;;40.42;25.18;101861.88;5069401;28;20028;-71
2023/07/09 10:51:36;;;;;;;1999.90;999.90;;;;;;;40.47;25.33;101884.06;5068244;28;20028;-71
2023/07/09 10:54:15;;;;;;;1999.90;999.90;;;;;;;41.31;24.24;101897.38;5069049;28;20036;-72
2023/07/09 10:56:42;;;;;;;1999.90;999.90;;;;;;;41.39;24.80;101910.16;5051047;28;20505;-72
2023/07/09 10:59:16;;;;;;;1999.90;999.90;;;;;;;38.49;28.94;101899.03;5031759;28;20464;-72